sensor_id;sensor_type;location;lat;lon;timestamp;P1;durP1;ratioP1;P2;durP2;ratioP2
69207;SDS011;56321;47.662;8.878;2023-03-24T00:01:29;8.73;;;3.00;;
69207;SDS011;56321;47.662;8.878;2023-03-24T00:03:55;6.70;;;3.00;;
69207;SDS011;56321;47.662;8.878;2023-03-24T00:06:21;7.40;;;3.08;;
69207;SDS011;56321;47.662;8.878;2023-03-24T00:08:46;6.80;;;2.77;;
69207;SDS011;56321;47.662;8.878;2023-03-24T00:11:12;8.20;;;2.97;;
69207;SDS011;56321;47.662;8.878;2023-03-24T00:13:38;6.70;;;2.70;;
69207;SDS011;56321;47.662;8.878;2023-03-24T00:16:09;7.78;;;3.00;;
69207;SDS011;56321;47.662;8.878;2023-03-24T00:18:36;6.35;;;2.55;;
69207;SDS011;56321;47.662;8.878;2023-03-24T00:21:03;8.27;;;3.03;;
69207;SDS011;56321;47.662;8.878;2023-03-24T00:23:30;7.15;;;2.88;;
69207;SDS011;56321;47.662;8.878;2023-03-24T00:28:33;8.07;;;3.00;;
69207;SDS011;56321;47.662;8.878;2023-03-24T00:31:01;7.13;;;2.80;;
69207;SDS011;56321;47.662;8.878;2023-03-24T00:33:28;6.82;;;2.55;;
69207;SDS011;56321;47.662;8.878;2023-03-24T00:35:59;7.35;;;2.97;;
69207;SDS011;56321;47.662;8.878;2023-03-24T00:38:31;7.33;;;2.80;;
69207;SDS011;56321;47.662;8.878;2023-03-24T00:40:58;7.30;;;2.80;;
69207;SDS011;56321;47.662;8.878;2023-03-24T00:43:24;7.45;;;2.80;;
69207;SDS011;56321;47.662;8.878;2023-03-24T00:45:49;7.30;;;3.20;;
69207;SDS011;56321;47.662;8.878;2023-03-24T00:48:16;7.32;;;2.90;;
69207;SDS011;56321;47.662;8.878;2023-03-24T00:50:44;7.53;;;2.60;;
69207;SDS011;56321;47.662;8.878;2023-03-24T00:53:11;7.18;;;2.95;;
69207;SDS011;56321;47.662;8.878;2023-03-24T00:55:39;6.65;;;2.80;;
69207;SDS011;56321;47.662;8.878;2023-03-24T00:58:05;7.72;;;2.90;;
69207;SDS011;56321;47.662;8.878;2023-03-24T01:00:31;6.57;;;2.90;;
69207;SDS011;56321;47.662;8.878;2023-03-24T01:02:56;7.00;;;2.90;;
69207;SDS011;56321;47.662;8.878;2023-03-24T01:05:27;7.05;;;2.90;;
69207;SDS011;56321;47.662;8.878;2023-03-24T01:07:57;7.75;;;3.00;;
69207;SDS011;56321;47.662;8.878;2023-03-24T01:10:27;7.83;;;2.97;;
69207;SDS011;56321;47.662;8.878;2023-03-24T01:12:55;7.88;;;3.10;;
69207;SDS011;56321;47.662;8.878;2023-03-24T01:15:22;6.90;;;3.00;;
69207;SDS011;56321;47.662;8.878;2023-03-24T01:17:50;7.22;;;3.00;;
69207;SDS011;56321;47.662;8.878;2023-03-24T01:20:17;8.25;;;3.10;;
69207;SDS011;56321;47.662;8.878;2023-03-24T01:22:43;7.17;;;2.80;;
69207;SDS011;56321;47.662;8.878;2023-03-24T01:25:10;7.65;;;3.13;;
69207;SDS011;56321;47.662;8.878;2023-03-24T01:27:41;7.28;;;3.17;;
69207;SDS011;56321;47.662;8.878;2023-03-24T01:30:08;7.28;;;2.75;;
69207;SDS011;56321;47.662;8.878;2023-03-24T01:32:35;6.50;;;2.77;;
69207;SDS011;56321;47.662;8.878;2023-03-24T01:35:01;7.70;;;3.15;;
69207;SDS011;56321;47.662;8.878;2023-03-24T01:37:27;7.22;;;3.03;;
69207;SDS011;56321;47.662;8.878;2023-03-24T01:39:52;7.17;;;3.10;;
69207;SDS011;56321;47.662;8.878;2023-03-24T01:42:19;7.20;;;3.20;;
69207;SDS011;56321;47.662;8.878;2023-03-24T01:44:46;7.00;;;2.90;;
69207;SDS011;56321;47.662;8.878;2023-03-24T01:47:13;7.20;;;2.97;;
69207;SDS011;56321;47.662;8.878;2023-03-24T01:49:53;6.50;;;2.80;;
69207;SDS011;56321;47.662;8.878;2023-03-24T01:52:25;7.22;;;2.97;;
69207;SDS011;56321;47.662;8.878;2023-03-24T01:54:54;8.25;;;3.17;;
69207;SDS011;56321;47.662;8.878;2023-03-24T02:00:02;7.03;;;2.95;;
69207;SDS011;56321;47.662;8.878;2023-03-24T02:02:32;8.18;;;3.08;;
69207;SDS011;56321;47.662;8.878;2023-03-24T02:05:00;7.68;;;2.97;;
69207;SDS011;56321;47.662;8.878;2023-03-24T02:07:38;7.90;;;3.50;;
69207;SDS011;56321;47.662;8.878;2023-03-24T02:10:12;7.53;;;3.23;;
69207;SDS011;56321;47.662;8.878;2023-03-24T02:12:43;7.75;;;3.33;;
69207;SDS011;56321;47.662;8.878;2023-03-24T02:15:09;7.35;;;3.33;;
69207;SDS011;56321;47.662;8.878;2023-03-24T02:31:56;7.47;;;3.20;;
69207;SDS011;56321;47.662;8.878;2023-03-24T02:49:00;7.63;;;3.20;;
69207;SDS011;56321;47.662;8.878;2023-03-24T02:51:56;6.95;;;2.85;;
69207;SDS011;56321;47.662;8.878;2023-03-24T02:54:50;7.57;;;3.10;;
69207;SDS011;56321;47.662;8.878;2023-03-24T02:57:38;7.20;;;2.85;;
69207;SDS011;56321;47.662;8.878;2023-03-24T03:00:07;7.47;;;3.25;;
69207;SDS011;56321;47.662;8.878;2023-03-24T03:02:43;7.53;;;3.20;;
69207;SDS011;56321;47.662;8.878;2023-03-24T03:05:18;7.78;;;3.58;;
69207;SDS011;56321;47.662;8.878;2023-03-24T03:07:50;8.13;;;3.53;;
69207;SDS011;56321;47.662;8.878;2023-03-24T03:10:23;7.50;;;3.05;;
69207;SDS011;56321;47.662;8.878;2023-03-24T03:12:56;7.18;;;3.33;;
69207;SDS011;56321;47.662;8.878;2023-03-24T03:15:26;7.10;;;3.17;;
69207;SDS011;56321;47.662;8.878;2023-03-24T03:18:07;8.23;;;3.40;;
69207;SDS011;56321;47.662;8.878;2023-03-24T03:20:38;8.03;;;3.37;;
69207;SDS011;56321;47.662;8.878;2023-03-24T03:23:15;8.55;;;3.33;;
69207;SDS011;56321;47.662;8.878;2023-03-24T03:25:45;8.43;;;3.70;;
69207;SDS011;56321;47.662;8.878;2023-03-24T03:28:16;7.57;;;3.30;;
69207;SDS011;56321;47.662;8.878;2023-03-24T03:30:50;7.55;;;3.60;;
69207;SDS011;56321;47.662;8.878;2023-03-24T03:33:42;7.30;;;3.20;;
69207;SDS011;56321;47.662;8.878;2023-03-24T03:36:09;7.65;;;3.25;;
69207;SDS011;56321;47.662;8.878;2023-03-24T03:38:48;8.93;;;3.78;;
69207;SDS011;56321;47.662;8.878;2023-03-24T03:41:24;8.10;;;3.67;;
69207;SDS011;56321;47.662;8.878;2023-03-24T03:43:50;8.07;;;3.37;;
69207;SDS011;56321;47.662;8.878;2023-03-24T03:46:16;8.60;;;3.75;;
69207;SDS011;56321;47.662;8.878;2023-03-24T03:48:42;8.13;;;3.80;;
69207;SDS011;56321;47.662;8.878;2023-03-24T03:51:09;8.25;;;3.55;;
69207;SDS011;56321;47.662;8.878;2023-03-24T03:53:44;8.20;;;3.70;;
69207;SDS011;56321;47.662;8.878;2023-03-24T03:56:14;8.03;;;3.67;;
69207;SDS011;56321;47.662;8.878;2023-03-24T03:58:44;7.93;;;3.30;;
69207;SDS011;56321;47.662;8.878;2023-03-24T04:01:11;8.55;;;3.65;;
69207;SDS011;56321;47.662;8.878;2023-03-24T04:06:12;8.17;;;3.43;;
69207;SDS011;56321;47.662;8.878;2023-03-24T04:08:52;7.78;;;3.55;;
69207;SDS011;56321;47.662;8.878;2023-03-24T04:11:35;7.20;;;3.30;;
69207;SDS011;56321;47.662;8.878;2023-03-24T04:20:14;7.78;;;3.20;;
69207;SDS011;56321;47.662;8.878;2023-03-24T04:28:40;8.77;;;4.10;;
69207;SDS011;56321;47.662;8.878;2023-03-24T04:31:20;7.82;;;4.03;;
69207;SDS011;56321;47.662;8.878;2023-03-24T04:33:56;7.85;;;3.97;;
69207;SDS011;56321;47.662;8.878;2023-03-24T04:36:32;7.68;;;3.53;;
69207;SDS011;56321;47.662;8.878;2023-03-24T04:39:13;8.13;;;3.92;;
69207;SDS011;56321;47.662;8.878;2023-03-24T04:41:43;7.87;;;3.90;;
69207;SDS011;56321;47.662;8.878;2023-03-24T04:44:11;8.27;;;3.92;;
69207;SDS011;56321;47.662;8.878;2023-03-24T04:46:41;7.35;;;3.38;;
69207;SDS011;56321;47.662;8.878;2023-03-24T04:49:07;7.93;;;3.70;;
69207;SDS011;56321;47.662;8.878;2023-03-24T04:51:33;8.23;;;4.00;;
69207;SDS011;56321;47.662;8.878;2023-03-24T04:53:58;7.70;;;3.70;;
69207;SDS011;56321;47.662;8.878;2023-03-24T04:58:54;9.33;;;4.30;;
69207;SDS011;56321;47.662;8.878;2023-03-24T05:01:20;8.60;;;4.35;;
69207;SDS011;56321;47.662;8.878;2023-03-24T05:03:46;7.57;;;3.60;;
69207;SDS011;56321;47.662;8.878;2023-03-24T05:06:12;7.50;;;3.47;;
69207;SDS011;56321;47.662;8.878;2023-03-24T05:08:38;7.88;;;3.85;;
69207;SDS011;56321;47.662;8.878;2023-03-24T05:11:03;8.37;;;4.20;;
69207;SDS011;56321;47.662;8.878;2023-03-24T05:13:29;8.43;;;4.15;;
69207;SDS011;56321;47.662;8.878;2023-03-24T05:15:55;7.17;;;3.53;;
69207;SDS011;56321;47.662;8.878;2023-03-24T05:18:20;8.67;;;4.10;;
69207;SDS011;56321;47.662;8.878;2023-03-24T05:20:46;7.47;;;3.87;;
69207;SDS011;56321;47.662;8.878;2023-03-24T05:23:12;8.88;;;4.00;;
69207;SDS011;56321;47.662;8.878;2023-03-24T05:25:37;8.27;;;4.27;;
69207;SDS011;56321;47.662;8.878;2023-03-24T05:28:02;8.10;;;3.83;;
69207;SDS011;56321;47.662;8.878;2023-03-24T05:30:28;8.17;;;3.70;;
69207;SDS011;56321;47.662;8.878;2023-03-24T05:32:53;11.37;;;5.83;;
69207;SDS011;56321;47.662;8.878;2023-03-24T05:35:18;9.05;;;4.60;;
69207;SDS011;56321;47.662;8.878;2023-03-24T05:37:44;8.20;;;4.07;;
69207;SDS011;56321;47.662;8.878;2023-03-24T05:40:09;8.47;;;4.50;;
69207;SDS011;56321;47.662;8.878;2023-03-24T05:42:35;8.50;;;4.00;;
69207;SDS011;56321;47.662;8.878;2023-03-24T05:45:01;8.03;;;3.60;;
69207;SDS011;56321;47.662;8.878;2023-03-24T05:47:27;8.15;;;3.60;;
69207;SDS011;56321;47.662;8.878;2023-03-24T05:49:52;7.67;;;3.27;;
69207;SDS011;56321;47.662;8.878;2023-03-24T05:52:17;7.57;;;3.60;;
69207;SDS011;56321;47.662;8.878;2023-03-24T05:54:44;7.50;;;3.58;;
69207;SDS011;56321;47.662;8.878;2023-03-24T05:57:11;7.43;;;3.80;;
69207;SDS011;56321;47.662;8.878;2023-03-24T05:59:38;7.75;;;3.47;;
69207;SDS011;56321;47.662;8.878;2023-03-24T06:02:03;8.80;;;3.90;;
69207;SDS011;56321;47.662;8.878;2023-03-24T06:04:29;8.15;;;3.97;;
69207;SDS011;56321;47.662;8.878;2023-03-24T06:06:58;7.90;;;3.60;;
69207;SDS011;56321;47.662;8.878;2023-03-24T06:09:27;9.05;;;3.60;;
69207;SDS011;56321;47.662;8.878;2023-03-24T06:11:53;9.07;;;3.67;;
69207;SDS011;56321;47.662;8.878;2023-03-24T06:14:19;8.47;;;3.50;;
69207;SDS011;56321;47.662;8.878;2023-03-24T06:16:45;7.63;;;3.50;;
69207;SDS011;56321;47.662;8.878;2023-03-24T06:19:10;7.20;;;3.25;;
69207;SDS011;56321;47.662;8.878;2023-03-24T06:21:35;8.70;;;3.87;;
69207;SDS011;56321;47.662;8.878;2023-03-24T06:24:01;7.50;;;3.60;;
69207;SDS011;56321;47.662;8.878;2023-03-24T06:26:27;8.15;;;3.92;;
69207;SDS011;56321;47.662;8.878;2023-03-24T06:28:54;8.80;;;4.10;;
69207;SDS011;56321;47.662;8.878;2023-03-24T06:31:20;8.17;;;3.70;;
69207;SDS011;56321;47.662;8.878;2023-03-24T06:33:49;7.60;;;3.47;;
69207;SDS011;56321;47.662;8.878;2023-03-24T06:36:15;8.52;;;3.95;;
69207;SDS011;56321;47.662;8.878;2023-03-24T06:38:42;8.32;;;3.90;;
69207;SDS011;56321;47.662;8.878;2023-03-24T06:41:08;7.90;;;3.80;;
69207;SDS011;56321;47.662;8.878;2023-03-24T06:43:33;8.33;;;3.90;;
69207;SDS011;56321;47.662;8.878;2023-03-24T06:45:59;8.10;;;3.67;;
69207;SDS011;56321;47.662;8.878;2023-03-24T06:48:25;8.37;;;3.93;;
69207;SDS011;56321;47.662;8.878;2023-03-24T06:50:51;8.30;;;4.20;;
69207;SDS011;56321;47.662;8.878;2023-03-24T06:53:17;9.27;;;3.57;;
69207;SDS011;56321;47.662;8.878;2023-03-24T06:55:43;10.40;;;4.07;;
69207;SDS011;56321;47.662;8.878;2023-03-24T06:58:08;8.05;;;3.60;;
69207;SDS011;56321;47.662;8.878;2023-03-24T07:00:34;9.13;;;4.00;;
69207;SDS011;56321;47.662;8.878;2023-03-24T07:03:00;8.02;;;3.67;;
69207;SDS011;56321;47.662;8.878;2023-03-24T07:05:26;8.70;;;3.47;;
69207;SDS011;56321;47.662;8.878;2023-03-24T07:07:52;7.37;;;3.40;;
69207;SDS011;56321;47.662;8.878;2023-03-24T07:10:17;8.27;;;4.13;;
69207;SDS011;56321;47.662;8.878;2023-03-24T07:12:43;7.60;;;3.40;;
69207;SDS011;56321;47.662;8.878;2023-03-24T07:15:09;7.32;;;3.40;;
69207;SDS011;56321;47.662;8.878;2023-03-24T07:17:35;8.07;;;3.83;;
69207;SDS011;56321;47.662;8.878;2023-03-24T07:20:00;7.13;;;3.27;;
69207;SDS011;56321;47.662;8.878;2023-03-24T07:22:26;7.60;;;3.10;;
69207;SDS011;56321;47.662;8.878;2023-03-24T07:24:51;8.27;;;3.83;;
69207;SDS011;56321;47.662;8.878;2023-03-24T07:27:17;7.37;;;3.27;;
69207;SDS011;56321;47.662;8.878;2023-03-24T07:29:42;7.63;;;3.40;;
69207;SDS011;56321;47.662;8.878;2023-03-24T07:32:07;6.50;;;2.97;;
69207;SDS011;56321;47.662;8.878;2023-03-24T07:34:33;7.93;;;3.60;;
69207;SDS011;56321;47.662;8.878;2023-03-24T07:37:01;6.93;;;3.13;;
69207;SDS011;56321;47.662;8.878;2023-03-24T07:39:26;7.33;;;3.10;;
69207;SDS011;56321;47.662;8.878;2023-03-24T07:41:52;8.10;;;3.25;;
69207;SDS011;56321;47.662;8.878;2023-03-24T07:44:17;7.77;;;3.20;;
69207;SDS011;56321;47.662;8.878;2023-03-24T07:46:43;7.20;;;3.30;;
69207;SDS011;56321;47.662;8.878;2023-03-24T07:49:08;7.30;;;3.40;;
69207;SDS011;56321;47.662;8.878;2023-03-24T07:51:33;7.50;;;3.40;;
69207;SDS011;56321;47.662;8.878;2023-03-24T07:53:59;8.30;;;3.60;;
69207;SDS011;56321;47.662;8.878;2023-03-24T07:56:25;8.10;;;3.67;;
69207;SDS011;56321;47.662;8.878;2023-03-24T07:58:50;8.33;;;3.73;;
69207;SDS011;56321;47.662;8.878;2023-03-24T08:01:15;8.60;;;3.72;;
69207;SDS011;56321;47.662;8.878;2023-03-24T08:03:41;7.77;;;3.63;;
69207;SDS011;56321;47.662;8.878;2023-03-24T08:06:06;10.03;;;4.40;;
69207;SDS011;56321;47.662;8.878;2023-03-24T08:08:33;9.48;;;3.83;;
69207;SDS011;56321;47.662;8.878;2023-03-24T08:10:59;8.63;;;3.65;;
69207;SDS011;56321;47.662;8.878;2023-03-24T08:13:25;8.70;;;3.60;;
69207;SDS011;56321;47.662;8.878;2023-03-24T08:15:50;8.35;;;3.67;;
69207;SDS011;56321;47.662;8.878;2023-03-24T08:18:17;8.15;;;3.40;;
69207;SDS011;56321;47.662;8.878;2023-03-24T08:20:46;7.33;;;3.33;;
69207;SDS011;56321;47.662;8.878;2023-03-24T08:23:13;7.55;;;3.50;;
69207;SDS011;56321;47.662;8.878;2023-03-24T08:25:38;7.93;;;3.50;;
69207;SDS011;56321;47.662;8.878;2023-03-24T08:28:03;8.85;;;3.88;;
69207;SDS011;56321;47.662;8.878;2023-03-24T08:30:29;7.93;;;3.70;;
69207;SDS011;56321;47.662;8.878;2023-03-24T08:32:56;8.43;;;3.38;;
69207;SDS011;56321;47.662;8.878;2023-03-24T08:35:27;7.78;;;3.10;;
69207;SDS011;56321;47.662;8.878;2023-03-24T08:37:55;9.40;;;3.43;;
69207;SDS011;56321;47.662;8.878;2023-03-24T08:40:23;7.63;;;3.30;;
69207;SDS011;56321;47.662;8.878;2023-03-24T08:42:51;7.40;;;3.13;;
69207;SDS011;56321;47.662;8.878;2023-03-24T08:45:21;7.78;;;3.25;;
69207;SDS011;56321;47.662;8.878;2023-03-24T08:47:51;7.13;;;3.10;;
69207;SDS011;56321;47.662;8.878;2023-03-24T08:50:17;7.73;;;3.03;;
69207;SDS011;56321;47.662;8.878;2023-03-24T08:52:47;7.03;;;3.47;;
69207;SDS011;56321;47.662;8.878;2023-03-24T08:55:14;9.37;;;3.70;;
69207;SDS011;56321;47.662;8.878;2023-03-24T08:57:43;8.35;;;3.63;;
69207;SDS011;56321;47.662;8.878;2023-03-24T09:00:09;8.15;;;3.45;;
69207;SDS011;56321;47.662;8.878;2023-03-24T09:02:39;8.88;;;3.30;;
69207;SDS011;56321;47.662;8.878;2023-03-24T09:05:06;8.30;;;3.80;;
69207;SDS011;56321;47.662;8.878;2023-03-24T09:07:31;7.07;;;3.50;;
69207;SDS011;56321;47.662;8.878;2023-03-24T09:09:57;7.20;;;3.13;;
69207;SDS011;56321;47.662;8.878;2023-03-24T09:12:22;7.13;;;3.30;;
69207;SDS011;56321;47.662;8.878;2023-03-24T09:14:48;8.07;;;3.80;;
69207;SDS011;56321;47.662;8.878;2023-03-24T09:17:14;8.90;;;3.80;;
69207;SDS011;56321;47.662;8.878;2023-03-24T09:19:40;7.30;;;3.63;;
69207;SDS011;56321;47.662;8.878;2023-03-24T09:22:05;8.50;;;4.17;;
69207;SDS011;56321;47.662;8.878;2023-03-24T09:24:31;8.65;;;3.92;;
69207;SDS011;56321;47.662;8.878;2023-03-24T09:26:56;8.23;;;3.60;;
69207;SDS011;56321;47.662;8.878;2023-03-24T09:29:21;8.07;;;3.77;;
69207;SDS011;56321;47.662;8.878;2023-03-24T09:31:47;8.80;;;3.97;;
69207;SDS011;56321;47.662;8.878;2023-03-24T09:34:12;8.43;;;3.97;;
69207;SDS011;56321;47.662;8.878;2023-03-24T09:36:37;8.23;;;3.90;;
69207;SDS011;56321;47.662;8.878;2023-03-24T09:39:03;8.00;;;4.03;;
69207;SDS011;56321;47.662;8.878;2023-03-24T09:41:28;8.93;;;4.40;;
69207;SDS011;56321;47.662;8.878;2023-03-24T09:43:56;8.20;;;4.30;;
69207;SDS011;56321;47.662;8.878;2023-03-24T09:46:30;8.53;;;4.20;;
69207;SDS011;56321;47.662;8.878;2023-03-24T09:49:03;8.57;;;4.10;;
69207;SDS011;56321;47.662;8.878;2023-03-24T09:51:33;7.88;;;3.90;;
69207;SDS011;56321;47.662;8.878;2023-03-24T09:56:31;8.53;;;3.97;;
69207;SDS011;56321;47.662;8.878;2023-03-24T10:01:37;8.30;;;3.90;;
69207;SDS011;56321;47.662;8.878;2023-03-24T10:04:03;8.33;;;4.30;;
69207;SDS011;56321;47.662;8.878;2023-03-24T10:06:37;9.18;;;4.10;;
69207;SDS011;56321;47.662;8.878;2023-03-24T10:16:53;7.10;;;3.35;;
69207;SDS011;56321;47.662;8.878;2023-03-24T10:22:31;7.72;;;3.30;;
69207;SDS011;56321;47.662;8.878;2023-03-24T10:25:14;7.57;;;3.20;;
69207;SDS011;56321;47.662;8.878;2023-03-24T10:28:09;7.65;;;3.10;;
69207;SDS011;56321;47.662;8.878;2023-03-24T10:30:42;7.65;;;3.20;;
69207;SDS011;56321;47.662;8.878;2023-03-24T10:33:09;7.10;;;3.03;;
69207;SDS011;56321;47.662;8.878;2023-03-24T10:35:37;8.63;;;3.50;;
69207;SDS011;56321;47.662;8.878;2023-03-24T10:38:17;8.67;;;3.73;;
69207;SDS011;56321;47.662;8.878;2023-03-24T10:40:45;7.05;;;3.17;;
69207;SDS011;56321;47.662;8.878;2023-03-24T10:43:11;6.68;;;3.13;;
69207;SDS011;56321;47.662;8.878;2023-03-24T10:45:38;7.75;;;3.50;;
69207;SDS011;56321;47.662;8.878;2023-03-24T10:48:08;8.68;;;3.60;;
69207;SDS011;56321;47.662;8.878;2023-03-24T10:50:36;7.77;;;3.30;;
69207;SDS011;56321;47.662;8.878;2023-03-24T10:53:07;7.65;;;3.45;;
69207;SDS011;56321;47.662;8.878;2023-03-24T10:55:35;7.28;;;3.20;;
69207;SDS011;56321;47.662;8.878;2023-03-24T10:58:13;7.38;;;3.50;;
69207;SDS011;56321;47.662;8.878;2023-03-24T11:01:00;7.13;;;3.15;;
69207;SDS011;56321;47.662;8.878;2023-03-24T11:03:29;9.63;;;3.27;;
69207;SDS011;56321;47.662;8.878;2023-03-24T11:05:57;6.70;;;2.80;;
69207;SDS011;56321;47.662;8.878;2023-03-24T11:08:25;5.57;;;2.10;;
69207;SDS011;56321;47.662;8.878;2023-03-24T11:10:53;5.95;;;2.40;;
69207;SDS011;56321;47.662;8.878;2023-03-24T11:13:29;6.43;;;2.17;;
69207;SDS011;56321;47.662;8.878;2023-03-24T11:16:03;6.20;;;2.63;;
69207;SDS011;56321;47.662;8.878;2023-03-24T11:18:37;6.00;;;1.98;;
69207;SDS011;56321;47.662;8.878;2023-03-24T11:21:28;6.32;;;1.90;;
69207;SDS011;56321;47.662;8.878;2023-03-24T11:23:58;5.63;;;2.03;;
69207;SDS011;56321;47.662;8.878;2023-03-24T11:26:35;6.75;;;1.80;;
69207;SDS011;56321;47.662;8.878;2023-03-24T11:29:04;6.60;;;2.10;;
69207;SDS011;56321;47.662;8.878;2023-03-24T11:31:34;7.85;;;2.40;;
69207;SDS011;56321;47.662;8.878;2023-03-24T11:34:17;6.38;;;2.50;;
69207;SDS011;56321;47.662;8.878;2023-03-24T11:36:49;6.05;;;2.20;;
69207;SDS011;56321;47.662;8.878;2023-03-24T11:47:22;5.38;;;1.30;;
69207;SDS011;56321;47.662;8.878;2023-03-24T11:56:02;4.50;;;0.80;;
69207;SDS011;56321;47.662;8.878;2023-03-24T11:58:16;4.10;;;0.80;;
69207;SDS011;56321;47.662;8.878;2023-03-24T12:03:44;3.95;;;0.70;;
69207;SDS011;56321;47.662;8.878;2023-03-24T12:14:17;5.32;;;0.80;;
69207;SDS011;56321;47.662;8.878;2023-03-24T12:17:02;4.15;;;0.98;;
69207;SDS011;56321;47.662;8.878;2023-03-24T12:27:50;4.05;;;0.80;;
69207;SDS011;56321;47.662;8.878;2023-03-24T12:30:26;4.55;;;0.70;;
69207;SDS011;56321;47.662;8.878;2023-03-24T12:38:46;3.33;;;0.50;;
69207;SDS011;56321;47.662;8.878;2023-03-24T12:55:18;3.00;;;0.35;;
69207;SDS011;56321;47.662;8.878;2023-03-24T12:57:51;2.83;;;0.30;;
69207;SDS011;56321;47.662;8.878;2023-03-24T13:00:45;2.60;;;0.30;;
69207;SDS011;56321;47.662;8.878;2023-03-24T13:03:27;3.90;;;0.47;;
69207;SDS011;56321;47.662;8.878;2023-03-24T13:06:03;2.28;;;0.35;;
69207;SDS011;56321;47.662;8.878;2023-03-24T13:08:38;3.33;;;0.50;;
69207;SDS011;56321;47.662;8.878;2023-03-24T13:11:09;2.38;;;0.40;;
69207;SDS011;56321;47.662;8.878;2023-03-24T13:13:38;2.60;;;0.30;;
69207;SDS011;56321;47.662;8.878;2023-03-24T13:16:12;2.07;;;0.30;;
69207;SDS011;56321;47.662;8.878;2023-03-24T13:18:51;2.35;;;0.35;;
69207;SDS011;56321;47.662;8.878;2023-03-24T13:21:20;2.80;;;0.40;;
69207;SDS011;56321;47.662;8.878;2023-03-24T13:24:10;2.92;;;0.40;;
69207;SDS011;56321;47.662;8.878;2023-03-24T13:26:38;2.30;;;0.30;;
69207;SDS011;56321;47.662;8.878;2023-03-24T13:32:10;2.97;;;0.38;;
69207;SDS011;56321;47.662;8.878;2023-03-24T13:34:54;2.00;;;0.30;;
69207;SDS011;56321;47.662;8.878;2023-03-24T13:37:27;3.58;;;0.40;;
69207;SDS011;56321;47.662;8.878;2023-03-24T13:39:59;2.63;;;0.40;;
69207;SDS011;56321;47.662;8.878;2023-03-24T13:42:29;2.23;;;0.23;;
69207;SDS011;56321;47.662;8.878;2023-03-24T13:45:00;2.33;;;0.30;;
69207;SDS011;56321;47.662;8.878;2023-03-24T13:50:40;2.40;;;0.30;;
69207;SDS011;56321;47.662;8.878;2023-03-24T13:53:15;3.67;;;0.30;;
69207;SDS011;56321;47.662;8.878;2023-03-24T13:55:49;2.53;;;0.20;;
69207;SDS011;56321;47.662;8.878;2023-03-24T14:03:41;3.17;;;0.30;;
69207;SDS011;56321;47.662;8.878;2023-03-24T14:06:09;2.30;;;0.20;;
69207;SDS011;56321;47.662;8.878;2023-03-24T14:14:09;2.25;;;0.30;;
69207;SDS011;56321;47.662;8.878;2023-03-24T14:16:51;2.78;;;0.30;;
69207;SDS011;56321;47.662;8.878;2023-03-24T14:19:31;1.70;;;0.30;;
69207;SDS011;56321;47.662;8.878;2023-03-24T14:24:28;1.73;;;0.20;;
69207;SDS011;56321;47.662;8.878;2023-03-24T14:26:56;2.95;;;0.40;;
69207;SDS011;56321;47.662;8.878;2023-03-24T14:29:32;1.37;;;0.23;;
69207;SDS011;56321;47.662;8.878;2023-03-24T14:32:02;3.25;;;0.40;;
69207;SDS011;56321;47.662;8.878;2023-03-24T14:34:28;2.60;;;0.30;;
69207;SDS011;56321;47.662;8.878;2023-03-24T14:37:00;1.60;;;0.20;;
69207;SDS011;56321;47.662;8.878;2023-03-24T14:39:39;1.75;;;0.20;;
69207;SDS011;56321;47.662;8.878;2023-03-24T14:42:56;1.77;;;0.20;;
69207;SDS011;56321;47.662;8.878;2023-03-24T14:44:56;1.88;;;0.30;;
69207;SDS011;56321;47.662;8.878;2023-03-24T14:47:22;2.78;;;0.40;;
69207;SDS011;56321;47.662;8.878;2023-03-24T14:49:50;2.42;;;0.30;;
69207;SDS011;56321;47.662;8.878;2023-03-24T14:52:27;2.95;;;0.30;;
69207;SDS011;56321;47.662;8.878;2023-03-24T14:55:02;2.77;;;0.40;;
69207;SDS011;56321;47.662;8.878;2023-03-24T14:57:33;2.08;;;0.30;;
69207;SDS011;56321;47.662;8.878;2023-03-24T15:02:50;2.58;;;0.30;;
69207;SDS011;56321;47.662;8.878;2023-03-24T15:13:28;2.83;;;0.30;;
69207;SDS011;56321;47.662;8.878;2023-03-24T15:15:57;3.08;;;0.40;;
69207;SDS011;56321;47.662;8.878;2023-03-24T15:18:23;2.63;;;0.32;;
69207;SDS011;56321;47.662;8.878;2023-03-24T15:20:52;2.67;;;0.37;;
69207;SDS011;56321;47.662;8.878;2023-03-24T15:23:19;3.03;;;0.30;;
69207;SDS011;56321;47.662;8.878;2023-03-24T15:25:46;3.42;;;0.40;;
69207;SDS011;56321;47.662;8.878;2023-03-24T15:28:21;2.78;;;0.30;;
69207;SDS011;56321;47.662;8.878;2023-03-24T15:30:50;2.60;;;0.30;;
69207;SDS011;56321;47.662;8.878;2023-03-24T15:33:16;2.10;;;0.30;;
69207;SDS011;56321;47.662;8.878;2023-03-24T15:35:42;2.97;;;0.37;;
69207;SDS011;56321;47.662;8.878;2023-03-24T15:38:28;2.80;;;0.30;;
69207;SDS011;56321;47.662;8.878;2023-03-24T15:40:56;2.28;;;0.20;;
69207;SDS011;56321;47.662;8.878;2023-03-24T15:43:24;1.90;;;0.30;;
69207;SDS011;56321;47.662;8.878;2023-03-24T15:45:54;1.70;;;0.30;;
69207;SDS011;56321;47.662;8.878;2023-03-24T15:48:24;2.92;;;0.30;;
69207;SDS011;56321;47.662;8.878;2023-03-24T15:56:17;2.75;;;0.28;;
69207;SDS011;56321;47.662;8.878;2023-03-24T15:58:46;3.17;;;0.30;;
69207;SDS011;56321;47.662;8.878;2023-03-24T16:01:14;2.70;;;0.30;;
69207;SDS011;56321;47.662;8.878;2023-03-24T16:03:43;2.33;;;0.30;;
69207;SDS011;56321;47.662;8.878;2023-03-24T16:06:12;2.20;;;0.30;;
69207;SDS011;56321;47.662;8.878;2023-03-24T16:08:40;2.17;;;0.30;;
69207;SDS011;56321;47.662;8.878;2023-03-24T16:13:36;2.63;;;0.38;;
69207;SDS011;56321;47.662;8.878;2023-03-24T16:18:44;3.30;;;0.30;;
69207;SDS011;56321;47.662;8.878;2023-03-24T16:21:18;3.05;;;0.30;;
69207;SDS011;56321;47.662;8.878;2023-03-24T16:23:48;2.53;;;0.30;;
69207;SDS011;56321;47.662;8.878;2023-03-24T16:26:21;3.15;;;0.40;;
69207;SDS011;56321;47.662;8.878;2023-03-24T16:28:52;3.60;;;0.55;;
69207;SDS011;56321;47.662;8.878;2023-03-24T16:31:22;2.78;;;0.32;;
69207;SDS011;56321;47.662;8.878;2023-03-24T16:33:54;3.05;;;0.30;;
69207;SDS011;56321;47.662;8.878;2023-03-24T16:36:20;2.60;;;0.30;;
69207;SDS011;56321;47.662;8.878;2023-03-24T16:38:47;2.55;;;0.40;;
69207;SDS011;56321;47.662;8.878;2023-03-24T16:41:13;3.78;;;0.40;;
69207;SDS011;56321;47.662;8.878;2023-03-24T16:43:40;3.20;;;0.40;;
69207;SDS011;56321;47.662;8.878;2023-03-24T16:46:10;2.85;;;0.30;;
69207;SDS011;56321;47.662;8.878;2023-03-24T16:48:38;2.63;;;0.30;;
69207;SDS011;56321;47.662;8.878;2023-03-24T16:51:03;2.70;;;0.30;;
69207;SDS011;56321;47.662;8.878;2023-03-24T16:53:28;3.40;;;0.50;;
69207;SDS011;56321;47.662;8.878;2023-03-24T16:55:54;2.60;;;0.40;;
69207;SDS011;56321;47.662;8.878;2023-03-24T16:58:19;2.90;;;0.30;;
69207;SDS011;56321;47.662;8.878;2023-03-24T17:00:45;3.07;;;0.40;;
69207;SDS011;56321;47.662;8.878;2023-03-24T17:03:12;2.22;;;0.30;;
69207;SDS011;56321;47.662;8.878;2023-03-24T17:05:39;2.78;;;0.40;;
69207;SDS011;56321;47.662;8.878;2023-03-24T17:08:11;2.63;;;0.30;;
69207;SDS011;56321;47.662;8.878;2023-03-24T17:10:36;3.08;;;0.38;;
69207;SDS011;56321;47.662;8.878;2023-03-24T17:13:03;2.63;;;0.40;;
69207;SDS011;56321;47.662;8.878;2023-03-24T17:15:28;2.30;;;0.30;;
69207;SDS011;56321;47.662;8.878;2023-03-24T17:17:55;2.95;;;0.40;;
69207;SDS011;56321;47.662;8.878;2023-03-24T17:20:21;2.67;;;0.30;;
69207;SDS011;56321;47.662;8.878;2023-03-24T17:22:50;2.33;;;0.30;;
69207;SDS011;56321;47.662;8.878;2023-03-24T17:25:18;3.30;;;0.50;;
69207;SDS011;56321;47.662;8.878;2023-03-24T17:27:46;3.13;;;0.40;;
69207;SDS011;56321;47.662;8.878;2023-03-24T17:30:16;2.60;;;0.40;;
69207;SDS011;56321;47.662;8.878;2023-03-24T17:32:43;2.83;;;0.30;;
69207;SDS011;56321;47.662;8.878;2023-03-24T17:35:10;3.95;;;0.30;;
69207;SDS011;56321;47.662;8.878;2023-03-24T17:37:36;1.93;;;0.30;;
69207;SDS011;56321;47.662;8.878;2023-03-24T17:40:02;3.33;;;0.30;;
69207;SDS011;56321;47.662;8.878;2023-03-24T17:42:33;3.03;;;0.40;;